createdAt,value
2023-03-26T00:01:16.329Z,1.52
2023-03-26T00:03:47.168Z,1.88
2023-03-26T00:06:15.934Z,1.33
2023-03-26T00:08:44.977Z,1.77
2023-03-26T00:11:14.693Z,2.15
2023-03-26T00:13:45.957Z,1.45
2023-03-26T00:16:17.727Z,1.35
2023-03-26T00:18:44.936Z,1.30
2023-03-26T00:21:14.095Z,1.77
2023-03-26T00:23:41.440Z,1.58
2023-03-26T00:26:14.155Z,1.88
2023-03-26T00:28:41.769Z,2.00
2023-03-26T00:31:11.424Z,1.85
2023-03-26T00:33:38.691Z,1.55
2023-03-26T00:36:09.870Z,1.42
2023-03-26T00:38:39.103Z,1.50
2023-03-26T00:41:17.815Z,1.60
2023-03-26T00:43:48.872Z,2.05
2023-03-26T00:46:15.896Z,1.80
2023-03-26T00:48:45.857Z,1.58
2023-03-26T00:51:15.568Z,1.58
2023-03-26T00:53:43.725Z,1.70
2023-03-26T00:56:10.690Z,1.83
2023-03-26T00:58:37.433Z,1.52
2023-03-26T01:01:07.407Z,1.70
2023-03-26T01:03:35.761Z,1.60
2023-03-26T01:06:04.844Z,1.35
2023-03-26T01:08:34.333Z,2.10
2023-03-26T01:11:13.922Z,1.80
2023-03-26T01:14:23.510Z,1.65
2023-03-26T01:16:53.262Z,1.58
2023-03-26T01:20:13.535Z,1.88
2023-03-26T01:22:44.196Z,2.10
2023-03-26T01:25:10.820Z,1.58
2023-03-26T01:27:42.496Z,1.90
2023-03-26T01:30:17.701Z,1.55
2023-03-26T01:32:47.584Z,1.67
2023-03-26T01:35:23.167Z,1.52
2023-03-26T01:38:10.892Z,1.83
2023-03-26T01:41:09.740Z,1.80
2023-03-26T01:43:55.555Z,1.60
2023-03-26T01:46:23.983Z,1.83
2023-03-26T01:48:51.448Z,1.40
2023-03-26T01:51:32.626Z,2.00
2023-03-26T01:54:00.128Z,1.67
2023-03-26T01:56:35.702Z,1.67
2023-03-26T01:59:20.361Z,1.60
2023-03-26T02:02:04.896Z,1.60
2023-03-26T02:04:42.979Z,1.70
2023-03-26T02:07:20.934Z,1.65
2023-03-26T02:09:49.982Z,1.67
2023-03-26T02:12:17.136Z,1.58
2023-03-26T02:14:47.326Z,1.95
2023-03-26T02:17:13.888Z,1.50
2023-03-26T02:19:43.271Z,1.40
2023-03-26T02:22:15.871Z,1.23
2023-03-26T02:24:43.284Z,1.70
2023-03-26T02:27:12.365Z,1.20
2023-03-26T02:29:42.612Z,1.48
2023-03-26T02:32:13.279Z,1.48
2023-03-26T02:34:41.856Z,1.67
2023-03-26T02:37:09.494Z,1.38
2023-03-26T02:39:36.353Z,1.10
2023-03-26T02:42:03.017Z,1.50
2023-03-26T02:44:29.600Z,1.50
2023-03-26T02:46:56.983Z,1.52
2023-03-26T02:49:23.536Z,1.60
2023-03-26T02:51:50.792Z,1.15
2023-03-26T02:54:18.258Z,1.60
2023-03-26T02:56:44.856Z,1.30
2023-03-26T02:59:12.213Z,1.30
2023-03-26T03:01:42.807Z,1.35
2023-03-26T03:04:10.618Z,1.45
2023-03-26T03:06:38.443Z,1.65
2023-03-26T03:09:06.711Z,1.55
2023-03-26T03:11:34.110Z,1.60
2023-03-26T03:14:00.695Z,1.80
2023-03-26T03:16:27.717Z,1.33
2023-03-26T03:18:57.450Z,1.58
2023-03-26T03:21:27.034Z,1.75
2023-03-26T03:23:54.773Z,1.20
2023-03-26T03:26:23.310Z,1.67
2023-03-26T03:28:50.074Z,1.40
2023-03-26T03:31:17.681Z,1.60
2023-03-26T03:33:46.308Z,1.55
2023-03-26T03:36:23.918Z,1.60
2023-03-26T03:38:50.848Z,1.63
2023-03-26T03:41:18.722Z,1.55
2023-03-26T03:43:47.502Z,1.10
2023-03-26T03:46:14.096Z,1.20
2023-03-26T03:48:41.049Z,1.52
2023-03-26T03:51:07.589Z,1.30
2023-03-26T03:53:37.291Z,1.30
2023-03-26T03:56:04.570Z,1.30
2023-03-26T03:58:31.207Z,1.25
2023-03-26T04:01:00.846Z,1.20
2023-03-26T04:03:33.670Z,1.40
2023-03-26T04:08:27.442Z,1.55
2023-03-26T04:10:54.008Z,1.67
2023-03-26T04:13:20.677Z,1.35
2023-03-26T04:15:47.419Z,1.15
2023-03-26T04:18:14.291Z,1.40
2023-03-26T04:20:46.560Z,1.70
2023-03-26T04:23:14.340Z,1.33
2023-03-26T04:25:42.747Z,1.60
2023-03-26T04:28:14.262Z,1.42
2023-03-26T04:30:42.406Z,1.20
2023-03-26T04:33:10.530Z,1.27
2023-03-26T04:35:37.163Z,1.33
2023-03-26T04:38:06.492Z,1.30
2023-03-26T04:40:39.114Z,1.40
2023-03-26T04:43:06.377Z,1.30
2023-03-26T04:45:32.949Z,1.25
2023-03-26T04:47:59.764Z,1.42
2023-03-26T04:50:26.823Z,1.23
2023-03-26T04:52:54.859Z,1.17
2023-03-26T04:55:25.494Z,1.00
2023-03-26T04:57:56.491Z,1.45
2023-03-26T05:00:23.403Z,1.48
2023-03-26T05:02:50.539Z,1.55
2023-03-26T05:05:17.814Z,1.67
2023-03-26T05:07:45.403Z,1.27
2023-03-26T05:10:14.487Z,1.30
2023-03-26T05:12:41.750Z,1.20
2023-03-26T05:15:09.643Z,1.13
2023-03-26T05:17:41.438Z,1.50
2023-03-26T05:20:31.753Z,1.50
2023-03-26T05:22:58.334Z,0.90
2023-03-26T05:25:25.036Z,1.30
2023-03-26T05:27:51.664Z,1.40
2023-03-26T05:30:20.414Z,1.30
2023-03-26T05:32:48.831Z,1.58
2023-03-26T05:35:17.261Z,1.60
2023-03-26T05:37:45.445Z,1.00
2023-03-26T05:40:14.740Z,1.42
2023-03-26T05:42:41.749Z,1.58
2023-03-26T05:45:09.918Z,1.45
2023-03-26T05:47:36.554Z,1.90
2023-03-26T05:50:03.696Z,1.42
2023-03-26T05:52:30.253Z,1.70
2023-03-26T05:54:56.807Z,2.00
2023-03-26T05:57:24.000Z,1.58
2023-03-26T05:59:50.819Z,1.30
2023-03-26T06:02:17.414Z,1.48
2023-03-26T06:04:45.810Z,1.77
2023-03-26T06:07:12.685Z,1.52
2023-03-26T06:09:39.819Z,1.50
2023-03-26T06:12:07.398Z,1.52
2023-03-26T06:14:33.955Z,1.52
2023-03-26T06:17:00.708Z,1.20
2023-03-26T06:19:27.258Z,1.50
2023-03-26T06:21:53.938Z,1.48
2023-03-26T06:24:20.714Z,1.50
2023-03-26T06:26:48.504Z,1.40
2023-03-26T06:29:15.468Z,1.48
2023-03-26T06:31:42.105Z,1.33
2023-03-26T06:34:08.703Z,1.50
2023-03-26T06:36:35.489Z,1.15
2023-03-26T06:39:02.055Z,1.48
2023-03-26T06:41:35.252Z,1.50
2023-03-26T06:46:44.862Z,1.30
2023-03-26T06:49:11.515Z,1.60
2023-03-26T06:51:40.651Z,1.45
2023-03-26T06:54:07.310Z,1.08
2023-03-26T06:56:33.897Z,1.80
2023-03-26T06:59:00.625Z,1.30
2023-03-26T07:01:27.213Z,1.23
2023-03-26T07:03:53.835Z,1.10
2023-03-26T07:06:20.531Z,1.40
2023-03-26T07:08:47.238Z,1.63
2023-03-26T07:11:13.988Z,1.60
2023-03-26T07:13:40.867Z,1.48
2023-03-26T07:16:07.695Z,1.55
2023-03-26T07:18:34.313Z,1.63
2023-03-26T07:21:01.410Z,1.40
2023-03-26T07:23:28.257Z,1.88
2023-03-26T07:25:55.577Z,1.67
2023-03-26T07:29:03.994Z,1.70
2023-03-26T07:31:50.050Z,2.05
2023-03-26T07:34:21.335Z,2.08
2023-03-26T07:36:57.074Z,1.50
2023-03-26T07:39:41.676Z,1.98
2023-03-26T07:42:17.099Z,2.00
2023-03-26T07:44:52.817Z,1.75
2023-03-26T07:47:27.951Z,1.67
2023-03-26T07:49:55.890Z,1.77
2023-03-26T07:52:23.068Z,2.08
2023-03-26T07:54:50.043Z,2.03
2023-03-26T07:57:40.617Z,2.38
2023-03-26T08:00:15.194Z,2.08
2023-03-26T08:03:01.635Z,2.08
2023-03-26T08:05:48.014Z,1.80
2023-03-26T08:08:20.758Z,2.35
2023-03-26T08:10:59.481Z,2.10
2023-03-26T08:13:49.200Z,1.85
2023-03-26T08:16:27.662Z,1.88
2023-03-26T08:19:24.350Z,1.90
2023-03-26T08:21:59.939Z,1.90
2023-03-26T08:24:36.754Z,1.85
2023-03-26T08:27:23.557Z,2.00
2023-03-26T08:30:01.635Z,2.05
2023-03-26T08:32:28.528Z,1.90
2023-03-26T08:34:57.498Z,1.88
2023-03-26T08:37:24.118Z,2.20
2023-03-26T08:39:50.876Z,2.17
2023-03-26T08:42:17.373Z,1.73
2023-03-26T08:44:47.687Z,2.20
2023-03-26T08:47:29.258Z,1.40
2023-03-26T08:50:21.707Z,1.90
2023-03-26T08:52:56.228Z,1.83
2023-03-26T08:55:38.273Z,1.92
2023-03-26T08:58:29.715Z,1.83
2023-03-26T09:01:17.895Z,2.38
2023-03-26T09:04:02.978Z,1.95
2023-03-26T09:06:48.141Z,1.88
2023-03-26T09:09:31.967Z,1.83
2023-03-26T09:15:04.705Z,1.63
2023-03-26T09:17:44.665Z,1.92
2023-03-26T09:20:53.555Z,1.63
2023-03-26T09:23:52.868Z,1.35
2023-03-26T09:26:29.967Z,1.42
2023-03-26T09:29:02.153Z,1.55
2023-03-26T09:32:05.453Z,1.38
2023-03-26T09:34:53.789Z,1.67
2023-03-26T09:37:29.063Z,1.35
2023-03-26T09:40:05.356Z,1.75
2023-03-26T09:42:40.509Z,1.52
2023-03-26T09:45:10.626Z,2.00
2023-03-26T09:48:18.917Z,1.80
2023-03-26T09:50:57.025Z,1.73
2023-03-26T09:54:15.130Z,1.63
2023-03-26T09:57:06.409Z,1.70
2023-03-26T10:00:18.005Z,1.83
2023-03-26T10:03:14.338Z,1.30
2023-03-26T10:05:56.842Z,1.65
2023-03-26T10:08:28.795Z,1.60
2023-03-26T10:11:08.201Z,1.63
2023-03-26T10:14:01.410Z,1.70
2023-03-26T10:16:56.110Z,1.50
2023-03-26T10:19:53.747Z,1.50
2023-03-26T10:22:48.004Z,1.40
2023-03-26T10:25:40.894Z,1.55
2023-03-26T10:28:07.371Z,1.50
2023-03-26T10:30:58.990Z,1.60
2023-03-26T10:33:50.206Z,1.30
2023-03-26T10:36:37.260Z,1.45
2023-03-26T10:39:37.883Z,1.85
2023-03-26T10:42:24.081Z,1.70
2023-03-26T10:45:32.039Z,1.70
2023-03-26T10:48:12.431Z,1.80
2023-03-26T10:50:45.036Z,1.48
2023-03-26T10:53:13.870Z,1.80
2023-03-26T10:55:45.409Z,1.60
2023-03-26T10:58:17.692Z,1.58
2023-03-26T11:00:51.329Z,1.75
2023-03-26T11:03:45.349Z,1.60
2023-03-26T11:08:48.633Z,1.73
2023-03-26T11:11:15.426Z,1.30
2023-03-26T11:14:16.789Z,1.58
2023-03-26T11:17:00.190Z,1.30
2023-03-26T11:19:53.202Z,1.63
2023-03-26T11:22:50.763Z,1.10
2023-03-26T11:25:44.122Z,1.20
2023-03-26T11:28:38.184Z,1.33
2023-03-26T11:33:38.120Z,1.50
2023-03-26T11:36:14.242Z,1.42
2023-03-26T11:38:49.866Z,1.48
2023-03-26T11:41:23.308Z,1.10
2023-03-26T11:43:59.129Z,1.65
2023-03-26T11:46:26.824Z,1.23
2023-03-26T11:48:57.631Z,1.30
2023-03-26T11:51:35.701Z,1.30
2023-03-26T11:54:03.592Z,1.33
2023-03-26T11:57:04.792Z,1.30
2023-03-26T11:59:53.180Z,1.30
2023-03-26T12:02:35.780Z,1.23
2023-03-26T12:05:21.702Z,1.60
2023-03-26T12:07:59.884Z,1.45
2023-03-26T12:10:28.999Z,1.73
2023-03-26T12:12:58.521Z,1.40
2023-03-26T12:15:25.678Z,1.40
2023-03-26T12:17:58.022Z,1.38
2023-03-26T12:20:27.725Z,1.40
2023-03-26T12:22:59.160Z,1.35
2023-03-26T12:25:28.065Z,1.40
2023-03-26T12:28:04.881Z,1.30
2023-03-26T12:30:37.317Z,1.27
2023-03-26T12:33:16.252Z,1.40
2023-03-26T12:35:43.677Z,1.13
2023-03-26T12:38:24.848Z,1.17
2023-03-26T12:42:25.937Z,1.20
2023-03-26T12:44:55.725Z,1.40
2023-03-26T12:47:57.979Z,1.00
2023-03-26T12:50:04.332Z,1.17
2023-03-26T12:53:05.080Z,1.02
2023-03-26T12:55:42.834Z,1.15
2023-03-26T12:58:51.107Z,1.10
2023-03-26T13:01:54.568Z,1.20
2023-03-26T13:04:30.154Z,1.27
2023-03-26T13:07:06.472Z,1.20
2023-03-26T13:09:45.080Z,1.25
2023-03-26T13:12:23.099Z,1.33
2023-03-26T13:14:52.504Z,1.10
2023-03-26T13:17:26.927Z,1.13
2023-03-26T13:20:38.294Z,1.27
2023-03-26T13:23:40.033Z,1.00
2023-03-26T13:26:46.811Z,1.13
2023-03-26T13:29:38.167Z,0.88
2023-03-26T13:32:25.933Z,0.95
2023-03-26T13:35:10.740Z,0.98
2023-03-26T13:37:43.905Z,1.20
2023-03-26T13:40:10.413Z,1.00
2023-03-26T13:42:49.565Z,1.25
2023-03-26T13:45:37.879Z,1.60
2023-03-26T13:48:06.022Z,1.20
2023-03-26T13:50:39.754Z,1.15
2023-03-26T13:53:32.777Z,0.80
2023-03-26T13:55:59.933Z,1.17
2023-03-26T13:58:47.503Z,1.20
2023-03-26T14:01:18.138Z,1.02
2023-03-26T14:04:08.824Z,0.90
2023-03-26T14:06:53.955Z,1.05
2023-03-26T14:09:26.408Z,1.10
2023-03-26T14:11:56.822Z,1.08
2023-03-26T14:14:53.203Z,0.95
2023-03-26T14:17:31.285Z,0.90
2023-03-26T14:20:27.996Z,0.90
2023-03-26T14:23:00.261Z,0.93
2023-03-26T14:25:36.006Z,0.80
2023-03-26T14:28:20.097Z,0.90
2023-03-26T14:30:56.436Z,1.10
2023-03-26T14:33:49.838Z,1.10
2023-03-26T14:36:25.951Z,1.02
2023-03-26T14:39:31.992Z,1.00
2023-03-26T14:42:24.983Z,1.05
2023-03-26T14:45:05.875Z,0.98
2023-03-26T14:47:37.686Z,0.90
2023-03-26T14:50:26.576Z,0.93
2023-03-26T14:53:01.172Z,1.10
2023-03-26T14:55:54.804Z,1.00
2023-03-26T14:58:42.795Z,0.90
2023-03-26T15:01:22.335Z,1.05
2023-03-26T15:04:16.660Z,0.85
2023-03-26T15:06:54.994Z,1.02
2023-03-26T15:09:40.413Z,0.85
2023-03-26T15:12:16.171Z,0.90
2023-03-26T15:14:51.426Z,0.80
2023-03-26T15:17:55.389Z,1.08
2023-03-26T15:20:40.698Z,1.23
2023-03-26T15:23:38.201Z,1.00
2023-03-26T15:26:30.620Z,0.90
2023-03-26T15:29:25.052Z,1.35
2023-03-26T15:32:22.247Z,0.98
2023-03-26T15:34:51.727Z,1.00
2023-03-26T15:37:39.770Z,0.98
2023-03-26T15:40:29.317Z,1.17
2023-03-26T15:43:11.799Z,1.25
2023-03-26T15:45:39.892Z,1.40
2023-03-26T15:48:12.663Z,0.90
2023-03-26T15:50:59.901Z,1.38
2023-03-26T15:53:33.901Z,1.20
2023-03-26T15:56:08.936Z,1.08
2023-03-26T15:59:00.053Z,1.23
2023-03-26T16:01:51.494Z,1.48
2023-03-26T16:04:23.055Z,1.20
2023-03-26T16:07:09.471Z,1.35
2023-03-26T16:10:02.298Z,1.35
2023-03-26T16:12:47.606Z,1.40
2023-03-26T16:15:24.183Z,1.17
2023-03-26T16:18:12.305Z,1.40
2023-03-26T16:20:54.256Z,1.70
2023-03-26T16:23:48.176Z,1.20
2023-03-26T16:26:45.518Z,1.30
2023-03-26T16:29:22.246Z,1.27
2023-03-26T16:32:04.543Z,1.38
2023-03-26T16:34:50.839Z,1.23
2023-03-26T16:37:45.896Z,1.23
2023-03-26T16:40:21.424Z,1.40
2023-03-26T16:43:12.639Z,1.13
2023-03-26T16:46:17.046Z,1.23
2023-03-26T16:49:07.654Z,1.45
2023-03-26T16:51:40.330Z,1.40
2023-03-26T16:54:13.042Z,1.03
2023-03-26T16:56:53.693Z,1.50
2023-03-26T16:59:37.871Z,1.70
2023-03-26T17:02:17.013Z,1.27
2023-03-26T17:04:46.615Z,1.20
2023-03-26T17:07:22.835Z,1.70
2023-03-26T17:10:08.800Z,1.40
2023-03-26T17:12:43.032Z,1.33
2023-03-26T17:15:36.445Z,1.20
2023-03-26T17:18:03.013Z,1.30
2023-03-26T17:20:36.787Z,1.30
2023-03-26T17:23:18.748Z,1.52
2023-03-26T17:26:26.639Z,1.35
2023-03-26T17:29:01.902Z,1.52
2023-03-26T17:31:38.343Z,1.50
2023-03-26T17:34:49.368Z,1.77
2023-03-26T17:37:22.031Z,1.48
2023-03-26T17:39:57.589Z,1.67
2023-03-26T17:42:27.777Z,1.35
2023-03-26T17:44:55.760Z,1.48
2023-03-26T17:47:28.372Z,1.60
2023-03-26T17:50:13.940Z,1.30
2023-03-26T17:52:57.823Z,1.33
2023-03-26T17:55:33.069Z,1.58
2023-03-26T17:58:01.741Z,1.63
2023-03-26T18:00:41.793Z,1.45
2023-03-26T18:03:20.378Z,1.58
2023-03-26T18:05:47.941Z,1.55
2023-03-26T18:08:39.155Z,1.70
2023-03-26T18:11:33.147Z,1.33
2023-03-26T18:16:38.833Z,1.80
2023-03-26T18:19:19.060Z,1.80
2023-03-26T18:21:50.179Z,1.60
2023-03-26T18:24:27.652Z,1.55
2023-03-26T18:26:58.352Z,1.52
2023-03-26T18:29:33.645Z,1.38
2023-03-26T18:32:09.370Z,1.50
2023-03-26T18:34:39.513Z,1.40
2023-03-26T18:37:17.792Z,1.27
2023-03-26T18:40:10.198Z,1.50
2023-03-26T18:42:37.275Z,1.55
2023-03-26T18:45:08.505Z,1.65
2023-03-26T18:47:38.104Z,1.45
2023-03-26T18:50:05.261Z,1.30
2023-03-26T18:52:32.223Z,1.38
2023-03-26T18:54:59.444Z,1.20
2023-03-26T18:57:28.219Z,1.55
2023-03-26T18:59:57.033Z,1.30
2023-03-26T19:02:25.458Z,1.15
2023-03-26T19:04:54.353Z,1.27
2023-03-26T19:07:25.948Z,1.10
2023-03-26T19:09:56.225Z,1.40
2023-03-26T19:12:32.535Z,1.33
2023-03-26T19:15:07.814Z,1.20
2023-03-26T19:17:40.161Z,1.17
2023-03-26T19:20:13.802Z,1.10
2023-03-26T19:22:42.302Z,1.00
2023-03-26T19:25:34.456Z,1.00
2023-03-26T19:28:01.126Z,1.10
2023-03-26T19:30:30.828Z,1.23
2023-03-26T19:33:13.255Z,1.17
2023-03-26T19:35:42.408Z,1.30
2023-03-26T19:38:27.141Z,1.00
2023-03-26T19:40:57.599Z,1.27
2023-03-26T19:43:25.599Z,1.15
2023-03-26T19:45:59.606Z,1.20
2023-03-26T19:48:46.247Z,1.17
2023-03-26T19:51:20.127Z,0.90
2023-03-26T19:53:49.764Z,1.00
2023-03-26T19:56:18.668Z,0.98
2023-03-26T19:58:45.299Z,1.00
2023-03-26T20:01:20.153Z,1.20
2023-03-26T20:03:48.520Z,1.10
2023-03-26T20:06:17.909Z,0.98
2023-03-26T20:08:44.482Z,0.80
2023-03-26T20:11:20.662Z,1.17
2023-03-26T20:13:47.752Z,1.00
2023-03-26T20:16:27.923Z,0.88
2023-03-26T20:18:57.314Z,1.40
2023-03-26T20:21:25.204Z,1.40
2023-03-26T20:23:55.275Z,1.23
2023-03-26T20:26:23.597Z,1.23
2023-03-26T20:28:53.419Z,1.10
2023-03-26T20:31:24.365Z,0.80
2023-03-26T20:33:52.012Z,0.63
2023-03-26T20:36:33.687Z,0.90
2023-03-26T20:39:03.035Z,0.83
2023-03-26T20:41:29.613Z,1.13
2023-03-26T20:43:56.925Z,1.08
2023-03-26T20:46:30.833Z,0.95
2023-03-26T20:48:58.068Z,0.80
2023-03-26T20:51:24.622Z,0.95
2023-03-26T20:53:51.239Z,1.00
2023-03-26T20:56:19.246Z,0.93
2023-03-26T20:58:50.572Z,1.08
2023-03-26T21:03:47.214Z,0.60
2023-03-26T21:06:13.777Z,0.90
2023-03-26T21:08:44.516Z,0.93
2023-03-26T21:11:26.694Z,0.80
2023-03-26T21:14:03.658Z,0.73
2023-03-26T21:16:30.559Z,1.13
2023-03-26T21:18:57.720Z,1.23
2023-03-26T21:21:52.764Z,0.80
2023-03-26T21:24:19.308Z,0.98
2023-03-26T21:27:26.533Z,0.77
2023-03-26T21:29:54.558Z,0.90
2023-03-26T21:32:22.630Z,0.60
2023-03-26T21:34:58.536Z,0.90
2023-03-26T21:37:26.476Z,1.02
2023-03-26T21:39:53.251Z,1.10
2023-03-26T21:42:20.122Z,0.98
2023-03-26T21:44:46.914Z,0.70
2023-03-26T21:47:14.113Z,0.90
2023-03-26T21:49:41.260Z,0.60
2023-03-26T21:52:15.126Z,0.90
2023-03-26T21:54:43.187Z,0.85
2023-03-26T21:57:23.217Z,0.73
2023-03-26T22:02:49.921Z,0.75
2023-03-26T22:05:19.150Z,0.80
2023-03-26T22:07:58.071Z,0.75
2023-03-26T22:10:24.950Z,0.85
2023-03-26T22:12:51.906Z,0.82
2023-03-26T22:15:19.036Z,0.80
2023-03-26T22:17:55.604Z,0.70
2023-03-26T22:20:25.037Z,0.80
2023-03-26T22:22:53.368Z,0.80
2023-03-26T22:25:20.866Z,0.95
2023-03-26T22:27:47.907Z,0.77
2023-03-26T22:30:15.551Z,0.82
2023-03-26T22:32:43.441Z,0.80
2023-03-26T22:35:10.377Z,0.73
2023-03-26T22:37:37.805Z,0.93
2023-03-26T22:40:08.338Z,0.90
2023-03-26T22:42:36.199Z,0.70
2023-03-26T22:45:04.088Z,0.93
2023-03-26T22:47:33.789Z,0.68
2023-03-26T22:50:00.667Z,0.60
2023-03-26T22:52:28.647Z,0.77
2023-03-26T22:54:55.269Z,0.80
2023-03-26T22:57:22.793Z,0.90
2023-03-26T22:59:49.366Z,0.90
2023-03-26T23:02:22.213Z,0.70
2023-03-26T23:04:49.680Z,0.70
2023-03-26T23:07:16.323Z,0.70
2023-03-26T23:09:43.004Z,0.70
2023-03-26T23:12:09.620Z,0.70
2023-03-26T23:14:36.266Z,0.70
2023-03-26T23:17:02.862Z,0.70
2023-03-26T23:19:30.186Z,0.70
2023-03-26T23:21:57.508Z,0.80
2023-03-26T23:24:26.439Z,1.00
2023-03-26T23:26:53.273Z,0.70
2023-03-26T23:29:19.892Z,0.75
2023-03-26T23:31:46.580Z,0.57
2023-03-26T23:34:13.561Z,0.77
2023-03-26T23:36:40.904Z,0.63
2023-03-26T23:39:09.260Z,0.77
2023-03-26T23:41:36.738Z,0.70
2023-03-26T23:44:03.860Z,0.60
2023-03-26T23:46:33.123Z,0.88
2023-03-26T23:49:02.589Z,0.70
2023-03-26T23:51:30.406Z,0.57
2023-03-26T23:53:57.160Z,0.60
2023-03-26T23:56:23.745Z,0.70
2023-03-26T23:58:50.288Z,0.73
